TAF KBWI
AMD KBWI 090859Z 0909/1012 26004KT P6SM SKC FM091200 00000KT P6SM SCT150 FM091900 18003KT P6SM BKN150 FM100800 18007KT P6SM SCT070=
METAR KBWI
KBWI 090954Z 26003KT 10SM CLR M01/M07 A3019 RMK AO2 SLP224 T10111072 ?
KBWI 090854Z 26004KT 10SM CLR M01/M07 A3017 RMK AO2 SLP216 T10111067 51024
KBWI 090754Z 27005KT 10SM CLR M01/M07 A3015 RMK AO2 SLP212 T10061067 ?
KBWI 090654Z 27004KT 10SM CLR M01/M07 A3011 RMK AO2 SLP199 T10061067 ?
KBWI 090554Z 29008KT 10SM CLR 01/M07 A3010 RMK AO2 SLP191 T00111067 10039 20011 51022 ?
WC KBWI
WS KBWI
WV KBWI